createdAt,value
2018-06-23T00:06:44.040Z,8.50
2018-06-23T00:11:46.994Z,8.40
2018-06-23T00:16:49.659Z,8.30
2018-06-23T00:21:52.528Z,8.20
2018-06-23T00:26:55.253Z,8.10
2018-06-23T00:31:57.882Z,8.10
2018-06-23T00:37:00.527Z,8.00
2018-06-23T00:42:03.313Z,8.00
2018-06-23T00:47:05.965Z,8.00
2018-06-23T00:52:08.618Z,7.90
2018-06-23T00:57:11.266Z,7.90
2018-06-23T01:02:13.886Z,7.90
2018-06-23T01:07:16.494Z,8.00
2018-06-23T01:12:19.237Z,7.90
2018-06-23T01:17:21.832Z,7.80
2018-06-23T01:22:24.491Z,7.70
2018-06-23T01:27:27.260Z,7.60
2018-06-23T01:37:32.659Z,7.60
2018-06-23T01:42:35.266Z,7.50
2018-06-23T01:47:37.893Z,7.60
2018-06-23T01:57:43.027Z,7.60
2018-06-23T02:02:45.642Z,7.60
2018-06-23T02:12:50.786Z,7.50
2018-06-23T02:17:59.082Z,7.40
2018-06-23T02:24:11.493Z,7.40
2018-06-23T02:29:19.887Z,7.40
2018-06-23T02:34:28.114Z,7.40
2018-06-23T02:39:30.767Z,7.30
2018-06-23T02:44:33.383Z,7.30
2018-06-23T02:49:36.818Z,7.20
2018-06-23T02:54:39.440Z,7.10
2018-06-23T02:59:42.072Z,7.10
2018-06-23T03:04:44.703Z,7.00
2018-06-23T03:09:47.503Z,7.00
2018-06-23T03:14:50.129Z,6.90
2018-06-23T03:19:52.748Z,6.70
2018-06-23T03:24:55.360Z,6.60
2018-06-23T03:29:58.010Z,6.60
2018-06-23T03:35:00.630Z,6.70
2018-06-23T03:40:03.399Z,6.70
2018-06-23T03:45:06.042Z,6.80
2018-06-23T03:50:09.002Z,6.80
2018-06-23T03:55:11.675Z,6.80
2018-06-23T04:00:14.363Z,6.90
2018-06-23T04:05:16.982Z,6.90
2018-06-23T04:10:19.578Z,7.10
2018-06-23T04:15:22.237Z,7.30
2018-06-23T04:20:24.867Z,7.40
2018-06-23T04:25:27.522Z,7.60
2018-06-23T04:30:30.275Z,7.80
2018-06-23T04:35:32.922Z,7.90
2018-06-23T04:40:35.866Z,8.00
2018-06-23T04:45:38.507Z,8.10
2018-06-23T04:50:41.127Z,8.10
2018-06-23T04:55:44.051Z,8.30
2018-06-23T05:00:46.689Z,8.50
2018-06-23T05:05:49.344Z,8.60
2018-06-23T05:10:52.138Z,8.70
2018-06-23T05:15:55.051Z,8.70
2018-06-23T05:20:57.671Z,8.70
2018-06-23T05:31:02.896Z,9.00
2018-06-23T05:36:06.547Z,9.20
2018-06-23T05:41:09.140Z,9.50
2018-06-23T05:46:11.919Z,9.80
2018-06-23T05:51:14.815Z,10.00
2018-06-23T05:56:17.927Z,10.20
2018-06-23T06:01:20.695Z,10.30
2018-06-23T06:06:23.451Z,10.40
2018-06-23T06:11:26.227Z,10.70
2018-06-23T06:16:37.948Z,10.90
2018-06-23T06:21:40.743Z,10.90
2018-06-23T06:26:43.363Z,11.10
2018-06-23T06:31:46.203Z,11.40
2018-06-23T06:36:48.946Z,11.60
2018-06-23T06:41:51.968Z,11.60
2018-06-23T06:46:55.144Z,11.70
2018-06-23T06:51:57.775Z,12.00
2018-06-23T07:07:06.002Z,12.70
2018-06-23T07:12:08.668Z,12.90
2018-06-23T07:22:13.984Z,13.50
2018-06-23T07:27:16.638Z,13.90
2018-06-23T07:32:19.255Z,14.10
2018-06-23T07:37:21.894Z,14.40
2018-06-23T07:42:24.575Z,14.20
2018-06-23T07:47:27.201Z,14.10
2018-06-23T07:52:29.966Z,14.50
2018-06-23T07:57:32.767Z,14.80
2018-06-23T08:02:35.419Z,14.80
2018-06-23T08:12:40.615Z,15.90
2018-06-23T08:17:43.493Z,16.20
2018-06-23T08:22:46.307Z,17.10
2018-06-23T08:27:48.970Z,17.30
2018-06-23T08:32:51.648Z,17.20
2018-06-23T08:37:54.660Z,16.90
2018-06-23T08:42:57.710Z,17.30
2018-06-23T08:48:00.919Z,17.80
2018-06-23T08:53:04.072Z,18.30
2018-06-23T08:58:06.853Z,18.80
2018-06-23T09:03:09.570Z,19.00
2018-06-23T09:08:12.291Z,19.10
2018-06-23T09:13:14.950Z,18.60
2018-06-23T09:18:17.676Z,18.20
2018-06-23T09:28:23.055Z,18.20
2018-06-23T09:33:25.816Z,19.10
2018-06-23T09:38:28.706Z,19.50
2018-06-23T09:43:31.321Z,19.70
2018-06-23T09:48:33.938Z,19.40
2018-06-23T09:53:36.650Z,19.40
2018-06-23T09:58:39.291Z,18.90
2018-06-23T10:03:41.976Z,19.30
2018-06-23T10:08:47.409Z,20.80
2018-06-23T10:13:51.107Z,21.20
2018-06-23T10:18:54.116Z,20.00
2018-06-23T10:23:56.845Z,19.90
2018-06-23T10:28:59.519Z,19.80
2018-06-23T10:34:02.176Z,20.10
2018-06-23T10:39:07.276Z,19.80
2018-06-23T10:44:09.910Z,19.90
2018-06-23T10:49:12.678Z,19.80
2018-06-23T10:54:15.752Z,20.80
2018-06-23T10:59:18.409Z,22.00
2018-06-23T11:04:21.094Z,21.60
2018-06-23T11:09:23.727Z,21.80
2018-06-23T11:14:26.336Z,22.50
2018-06-23T11:19:29.051Z,22.70
2018-06-23T11:24:31.829Z,22.10
2018-06-23T11:34:37.116Z,22.10
2018-06-23T11:39:39.783Z,21.70
2018-06-23T11:44:42.553Z,21.40
2018-06-23T11:49:45.203Z,23.20
2018-06-23T11:54:48.466Z,22.80
2018-06-23T11:59:51.526Z,24.70
2018-06-23T12:04:54.192Z,26.50
2018-06-23T12:09:57.633Z,26.80
2018-06-23T12:15:00.265Z,26.40
2018-06-23T12:20:03.069Z,25.40
2018-06-23T12:25:05.727Z,26.80
2018-06-23T12:30:08.420Z,28.10
2018-06-23T12:35:11.115Z,27.90
2018-06-23T12:40:13.878Z,27.20
2018-06-23T12:45:16.525Z,25.90
2018-06-23T12:50:19.347Z,25.80
2018-06-23T12:55:21.967Z,28.10
2018-06-23T13:00:24.610Z,30.70
2018-06-23T13:05:27.350Z,29.60
2018-06-23T13:15:32.578Z,32.20
2018-06-23T13:20:35.234Z,31.70
2018-06-23T13:25:37.904Z,31.50
2018-06-23T13:30:40.555Z,29.30
2018-06-23T13:35:43.237Z,30.60
2018-06-23T13:40:45.927Z,30.60
2018-06-23T13:45:48.575Z,32.20
2018-06-23T13:50:51.306Z,33.40
2018-06-23T13:55:54.608Z,33.40
2018-06-23T14:00:57.306Z,33.20
2018-06-23T14:06:00.045Z,30.30
2018-06-23T14:11:02.763Z,31.40
2018-06-23T14:16:05.530Z,33.10
2018-06-23T14:21:08.918Z,33.20
2018-06-23T14:26:11.532Z,32.10
2018-06-23T14:31:14.514Z,33.70
2018-06-23T14:36:17.139Z,33.60
2018-06-23T14:41:19.919Z,32.80
2018-06-23T14:46:22.588Z,32.70
2018-06-23T14:51:25.233Z,31.20
2018-06-23T14:56:27.857Z,28.60
2018-06-23T15:01:30.507Z,29.10
2018-06-23T15:06:33.155Z,28.90
2018-06-23T15:11:47.157Z,30.60
2018-06-23T15:16:49.859Z,31.10
2018-06-23T15:21:52.735Z,33.10
2018-06-23T15:26:55.514Z,35.10
2018-06-23T15:31:58.216Z,33.50
2018-06-23T15:37:00.866Z,34.40
2018-06-23T15:42:03.583Z,31.10
2018-06-23T15:47:06.395Z,27.80
2018-06-23T15:52:08.977Z,26.00
2018-06-23T15:57:11.964Z,25.20
2018-06-23T16:02:14.634Z,27.80
2018-06-23T16:12:20.357Z,31.60
2018-06-23T16:17:24.871Z,31.70
2018-06-23T16:22:28.076Z,31.60
2018-06-23T16:32:33.495Z,28.90
2018-06-23T16:37:36.222Z,30.20
2018-06-23T16:42:38.899Z,28.90
2018-06-23T16:47:41.610Z,29.60
2018-06-23T16:52:44.339Z,31.20
2018-06-23T16:57:47.073Z,32.70
2018-06-23T17:02:49.731Z,33.20
2018-06-23T17:07:52.465Z,32.80
2018-06-23T17:12:55.114Z,32.50
2018-06-23T17:17:57.890Z,31.90
2018-06-23T17:23:00.696Z,30.60
2018-06-23T17:28:03.382Z,29.40
2018-06-23T17:33:06.247Z,27.60
2018-06-23T17:38:08.942Z,24.80
2018-06-23T17:43:11.569Z,23.10
2018-06-23T17:48:14.200Z,22.40
2018-06-23T17:53:16.885Z,21.80
2018-06-23T17:58:20.265Z,21.10
2018-06-23T18:03:22.915Z,20.30
2018-06-23T18:08:26.081Z,19.50
2018-06-23T18:13:28.778Z,19.00
2018-06-23T18:18:31.426Z,18.60
2018-06-23T18:23:34.190Z,18.40
2018-06-23T18:28:36.855Z,18.10
2018-06-23T18:33:39.498Z,18.10
2018-06-23T18:38:42.526Z,17.90
2018-06-23T18:43:45.179Z,17.60
2018-06-23T18:48:47.852Z,17.30
2018-06-23T18:53:52.860Z,17.20
2018-06-23T18:58:55.520Z,17.10
2018-06-23T19:03:58.172Z,18.80
2018-06-23T19:09:01.152Z,16.80
2018-06-23T19:14:03.992Z,16.50
2018-06-23T19:19:06.651Z,16.10
2018-06-23T19:24:09.286Z,15.80
2018-06-23T19:29:11.951Z,15.50
2018-06-23T19:34:14.627Z,15.30
2018-06-23T19:39:17.243Z,15.10
2018-06-23T19:44:19.886Z,14.90
2018-06-23T22:36:08.612Z,11.90
2018-06-23T22:41:11.245Z,12.00
2018-06-23T22:46:13.971Z,12.20
2018-06-23T22:51:17.159Z,12.30
2018-06-23T22:56:19.851Z,12.40
2018-06-23T23:01:22.479Z,12.50
2018-06-23T23:06:25.159Z,12.60
2018-06-23T23:11:27.797Z,12.60
2018-06-23T23:16:30.535Z,12.60
2018-06-23T23:21:33.307Z,12.60
2018-06-23T23:26:36.239Z,12.60
2018-06-23T23:31:38.856Z,12.70
2018-06-23T23:36:41.631Z,12.80
2018-06-23T23:41:44.292Z,12.80
2018-06-23T23:46:46.903Z,12.80
2018-06-23T23:51:49.512Z,12.80
2018-06-23T23:56:52.187Z,12.90
